createdAt,value
2023-03-03T00:04:31.684Z,14.37
2023-03-03T00:09:34.829Z,16.23
2023-03-03T00:14:38.016Z,16.10
2023-03-03T00:19:42.331Z,21.87
2023-03-03T00:24:45.271Z,20.70
2023-03-03T00:29:55.632Z,23.57
2023-03-03T00:35:26.263Z,26.93
2023-03-03T00:40:40.666Z,36.80
2023-03-03T00:45:53.217Z,32.40
2023-03-03T00:51:01.580Z,19.73
2023-03-03T00:56:04.892Z,16.83
2023-03-03T01:01:08.098Z,17.63
2023-03-03T01:06:12.612Z,18.63
2023-03-03T01:11:25.958Z,19.97
2023-03-03T01:16:29.289Z,18.07
2023-03-03T01:21:32.373Z,20.07
2023-03-03T01:26:35.459Z,18.97
2023-03-03T01:31:38.727Z,18.60
2023-03-03T01:36:41.772Z,16.77
2023-03-03T01:41:44.660Z,16.87
2023-03-03T01:47:13.252Z,24.70
2023-03-03T01:52:47.231Z,18.57
2023-03-03T01:58:01.344Z,22.87
2023-03-03T02:03:05.881Z,17.20
2023-03-03T02:08:12.523Z,25.27
2023-03-03T02:13:15.635Z,17.73
2023-03-03T02:18:21.065Z,20.27
2023-03-03T02:23:46.450Z,22.73
2023-03-03T02:28:50.484Z,23.63
2023-03-03T02:33:55.505Z,19.10
2023-03-03T02:39:13.800Z,21.97
2023-03-03T02:44:20.676Z,23.67
2023-03-03T02:49:34.240Z,24.60
2023-03-03T02:54:38.031Z,20.63
2023-03-03T02:59:40.966Z,29.07
2023-03-03T03:04:43.867Z,22.20
2023-03-03T03:09:46.679Z,23.37
2023-03-03T03:14:49.893Z,22.87
2023-03-03T03:19:52.863Z,23.13
2023-03-03T03:24:55.980Z,21.23
2023-03-03T03:29:58.894Z,22.63
2023-03-03T03:35:02.278Z,19.37
2023-03-03T03:40:06.259Z,23.83
2023-03-03T03:45:09.956Z,23.00
2023-03-03T03:50:13.314Z,19.90
2023-03-03T03:55:16.444Z,22.67
2023-03-03T04:00:19.754Z,20.90
2023-03-03T04:05:23.249Z,21.17
2023-03-03T04:10:26.384Z,21.40
2023-03-03T04:15:30.348Z,22.70
2023-03-03T04:20:33.450Z,25.90
2023-03-03T04:25:36.923Z,34.33
2023-03-03T04:30:40.531Z,38.90
2023-03-03T04:35:43.481Z,26.83
2023-03-03T04:40:46.559Z,27.53
2023-03-03T04:45:49.555Z,28.43
2023-03-03T04:50:52.689Z,27.77
2023-03-03T04:55:55.728Z,21.70
2023-03-03T05:00:59.103Z,24.73
2023-03-03T05:06:02.111Z,26.43
2023-03-03T05:11:05.398Z,27.43
2023-03-03T05:16:09.073Z,23.07
2023-03-03T05:21:12.660Z,29.93
2023-03-03T05:26:15.664Z,33.37
2023-03-03T05:31:18.727Z,25.87
2023-03-03T05:36:22.320Z,23.93
2023-03-03T05:41:25.463Z,21.80
2023-03-03T05:46:28.798Z,23.90
2023-03-03T05:51:31.989Z,35.40
2023-03-03T05:56:35.132Z,23.67
2023-03-03T06:01:39.165Z,22.53
2023-03-03T06:06:42.246Z,23.47
2023-03-03T06:11:45.312Z,18.50
2023-03-03T06:16:48.881Z,21.43
2023-03-03T06:21:51.844Z,21.20
2023-03-03T06:26:55.820Z,20.23
2023-03-03T06:31:58.922Z,21.00
2023-03-03T06:37:02.258Z,31.07
2023-03-03T06:42:05.386Z,30.37
2023-03-03T06:47:08.640Z,36.30
2023-03-03T06:52:27.744Z,37.67
2023-03-03T06:57:34.464Z,30.83
2023-03-03T07:02:37.289Z,33.77
2023-03-03T07:07:40.169Z,28.60
2023-03-03T07:12:43.019Z,34.57
2023-03-03T07:17:51.204Z,41.03
2023-03-03T07:22:54.370Z,31.57
2023-03-03T07:28:12.327Z,42.07
2023-03-03T07:33:41.103Z,51.83
2023-03-03T07:39:01.166Z,41.20
2023-03-03T07:44:21.300Z,33.50
2023-03-03T07:49:37.437Z,36.67
2023-03-03T07:54:43.599Z,32.17
2023-03-03T08:00:02.453Z,31.17
2023-03-03T08:05:31.425Z,24.70
2023-03-03T08:10:53.246Z,20.93
2023-03-03T08:21:26.748Z,20.73
2023-03-03T08:26:29.732Z,22.13
2023-03-03T08:31:41.377Z,20.03
2023-03-03T08:36:44.922Z,17.50
2023-03-03T08:41:47.976Z,18.93
2023-03-03T08:46:50.978Z,18.30
2023-03-03T08:51:54.657Z,18.00
2023-03-03T08:56:57.666Z,17.30
2023-03-03T09:02:00.724Z,18.77
2023-03-03T09:07:03.599Z,16.95
2023-03-03T09:12:22.612Z,16.83
2023-03-03T09:17:37.615Z,17.90
2023-03-03T09:22:40.734Z,16.13
2023-03-03T09:27:43.517Z,16.58
2023-03-03T09:32:46.241Z,14.20
2023-03-03T09:37:52.629Z,14.18
2023-03-03T09:43:26.371Z,13.18
2023-03-03T09:48:47.750Z,7.20
2023-03-03T09:54:18.297Z,5.95
2023-03-03T09:59:44.079Z,7.32
2023-03-03T10:05:15.293Z,6.90
2023-03-03T10:10:49.158Z,8.25
2023-03-03T10:16:19.372Z,5.80
2023-03-03T10:21:50.624Z,6.53
2023-03-03T10:27:12.368Z,6.20
2023-03-03T10:32:41.399Z,5.88
2023-03-03T10:38:15.372Z,6.03
2023-03-03T10:44:18.455Z,5.28
2023-03-03T10:50:21.507Z,4.40
2023-03-03T10:55:53.177Z,3.85
2023-03-03T11:01:31.024Z,4.82
2023-03-03T11:07:16.381Z,6.68
2023-03-03T11:12:35.173Z,7.60
2023-03-03T11:17:49.945Z,6.20
2023-03-03T11:23:07.291Z,6.50
2023-03-03T11:28:44.396Z,5.93
2023-03-03T11:33:53.155Z,7.60
2023-03-03T11:39:00.240Z,11.80
2023-03-03T11:44:06.096Z,9.73
2023-03-03T11:49:18.982Z,16.20
2023-03-03T11:54:56.391Z,17.65
2023-03-03T12:00:17.830Z,9.27
2023-03-03T12:06:05.278Z,7.53
2023-03-03T12:11:43.196Z,6.68
2023-03-03T12:17:15.737Z,7.28
2023-03-03T12:22:33.597Z,6.15
2023-03-03T12:28:05.644Z,6.45
2023-03-03T12:33:31.077Z,6.28
2023-03-03T12:39:25.326Z,4.65
2023-03-03T12:45:11.387Z,5.10
2023-03-03T12:50:48.018Z,5.60
2023-03-03T12:56:00.453Z,6.18
2023-03-03T13:01:36.822Z,8.65
2023-03-03T13:07:25.246Z,8.00
2023-03-03T13:12:42.157Z,11.57
2023-03-03T13:17:54.246Z,10.18
2023-03-03T13:23:31.850Z,10.45
2023-03-03T13:28:58.491Z,8.85
2023-03-03T13:34:02.659Z,9.57
2023-03-03T13:39:22.637Z,8.82
2023-03-03T13:44:39.047Z,10.07
2023-03-03T13:50:07.940Z,9.87
2023-03-03T13:55:44.672Z,10.30
2023-03-03T14:01:02.501Z,11.13
2023-03-03T14:06:15.252Z,11.50
2023-03-03T14:12:20.187Z,12.90
2023-03-03T14:17:58.165Z,12.60
2023-03-03T14:23:33.897Z,11.13
2023-03-03T14:29:35.612Z,10.77
2023-03-03T14:34:41.543Z,9.55
2023-03-03T14:39:49.002Z,10.33
2023-03-03T14:44:56.416Z,11.03
2023-03-03T14:50:03.582Z,11.77
2023-03-03T14:55:38.827Z,11.23
2023-03-03T15:00:41.789Z,11.13
2023-03-03T15:05:57.879Z,10.70
2023-03-03T15:11:17.418Z,10.40
2023-03-03T15:16:31.947Z,10.50
2023-03-03T15:21:40.662Z,12.23
2023-03-03T15:27:00.339Z,13.60
2023-03-03T15:32:44.765Z,32.07
2023-03-03T15:38:22.505Z,15.17
2023-03-03T15:43:35.188Z,15.03
2023-03-03T15:48:57.151Z,25.20
2023-03-03T15:54:25.379Z,14.07
2023-03-03T15:59:51.133Z,11.73
2023-03-03T16:05:22.704Z,12.27
2023-03-03T16:11:06.762Z,12.57
2023-03-03T16:16:37.067Z,12.50
2023-03-03T16:22:24.669Z,16.97
2023-03-03T16:28:08.765Z,13.17
2023-03-03T16:33:44.035Z,17.20
2023-03-03T16:39:31.987Z,16.17
2023-03-03T16:44:43.237Z,21.73
2023-03-03T16:49:59.460Z,20.95
2023-03-03T16:55:32.636Z,18.63
2023-03-03T17:01:08.839Z,17.10
2023-03-03T17:06:48.365Z,16.73
2023-03-03T17:12:26.907Z,16.10
2023-03-03T17:17:54.358Z,15.60
2023-03-03T17:23:43.233Z,34.40
2023-03-03T17:29:18.521Z,21.00
2023-03-03T17:35:20.311Z,29.20
2023-03-03T17:41:07.516Z,37.17
2023-03-03T17:46:31.388Z,50.40
2023-03-03T17:57:59.348Z,25.40
2023-03-03T18:03:15.787Z,21.50
2023-03-03T18:08:47.064Z,21.23
2023-03-03T18:14:15.967Z,20.53
2023-03-03T18:19:50.495Z,23.27
2023-03-03T18:24:55.192Z,21.37
2023-03-03T18:30:51.956Z,22.77
2023-03-03T18:36:36.590Z,23.97
2023-03-03T18:42:15.660Z,23.47
2023-03-03T18:47:21.330Z,23.97
2023-03-03T18:52:31.821Z,24.57
2023-03-03T18:57:35.827Z,26.63
2023-03-03T19:02:49.691Z,23.43
2023-03-03T19:08:18.760Z,21.77
2023-03-03T19:13:33.725Z,21.00
2023-03-03T19:18:42.584Z,20.50
2023-03-03T19:23:59.955Z,21.40
2023-03-03T19:29:27.871Z,20.30
2023-03-03T19:35:01.744Z,20.90
2023-03-03T19:41:09.738Z,20.47
2023-03-03T19:47:19.026Z,19.50
2023-03-03T19:53:06.136Z,18.07
2023-03-03T19:58:23.281Z,19.73
2023-03-03T20:03:54.703Z,26.53
2023-03-03T20:09:16.270Z,36.13
2023-03-03T20:15:02.329Z,33.33
2023-03-03T20:20:36.534Z,32.23
2023-03-03T20:26:14.808Z,44.73
2023-03-03T20:31:48.025Z,30.10
2023-03-03T20:37:10.399Z,26.80
2023-03-03T20:42:56.203Z,24.93
2023-03-03T20:48:40.858Z,25.57
2023-03-03T20:54:38.406Z,52.17
2023-03-03T21:00:22.741Z,24.50
2023-03-03T21:05:26.394Z,17.83
2023-03-03T21:10:36.128Z,15.83
2023-03-03T21:15:39.894Z,14.07
2023-03-03T21:20:42.626Z,14.20
2023-03-03T21:25:54.563Z,12.40
2023-03-03T21:31:18.025Z,14.77
2023-03-03T21:36:31.931Z,13.40
2023-03-03T21:42:14.499Z,14.83
2023-03-03T21:52:23.040Z,14.20
2023-03-03T21:57:25.943Z,12.50
2023-03-03T22:02:29.109Z,14.87
2023-03-03T22:07:32.257Z,17.93
2023-03-03T22:12:35.316Z,24.80
2023-03-03T22:17:38.476Z,25.70
2023-03-03T22:22:42.244Z,24.57
2023-03-03T22:27:45.175Z,28.00
2023-03-03T22:32:52.320Z,28.70
2023-03-03T22:37:55.220Z,27.73
2023-03-03T22:42:59.186Z,24.87
2023-03-03T22:48:02.233Z,26.43
2023-03-03T22:53:08.058Z,25.67
2023-03-03T22:58:12.207Z,26.00
2023-03-03T23:03:16.261Z,27.93
2023-03-03T23:08:20.530Z,24.73
2023-03-03T23:13:25.198Z,16.23
2023-03-03T23:18:28.790Z,13.47
2023-03-03T23:23:32.364Z,10.80
2023-03-03T23:28:35.549Z,10.43
2023-03-03T23:33:38.575Z,10.80
2023-03-03T23:38:43.194Z,11.27
2023-03-03T23:43:46.373Z,9.10
2023-03-03T23:48:49.448Z,11.00
2023-03-03T23:53:52.481Z,9.53
2023-03-03T23:58:55.623Z,9.73
